createdAt,value
2022-07-29T00:00:03.305Z,23.56
2022-07-29T00:03:07.409Z,23.41
2022-07-29T00:06:11.625Z,23.37
2022-07-29T00:09:14.902Z,23.30
2022-07-29T00:12:21.336Z,23.20
2022-07-29T00:15:28.516Z,23.17
2022-07-29T00:18:31.817Z,23.15
2022-07-29T00:21:34.689Z,23.12
2022-07-29T00:24:38.151Z,23.08
2022-07-29T00:27:41.658Z,23.08
2022-07-29T00:30:44.842Z,23.01
2022-07-29T00:33:47.738Z,23.01
2022-07-29T00:36:50.764Z,22.90
2022-07-29T00:39:53.743Z,22.85
2022-07-29T00:42:57.321Z,22.84
2022-07-29T00:46:01.213Z,22.84
2022-07-29T00:49:04.495Z,22.87
2022-07-29T00:52:07.990Z,22.88
2022-07-29T00:55:14.059Z,22.89
2022-07-29T00:58:16.676Z,22.80
2022-07-29T01:01:20.671Z,22.80
2022-07-29T01:04:23.504Z,22.75
2022-07-29T01:07:27.342Z,22.70
2022-07-29T01:10:30.691Z,22.68
2022-07-29T01:13:35.035Z,22.67
2022-07-29T01:16:47.549Z,22.70
2022-07-29T01:20:08.775Z,22.65
2022-07-29T01:23:31.556Z,22.66
2022-07-29T01:26:49.164Z,22.49
2022-07-29T01:29:59.936Z,22.60
2022-07-29T01:33:09.831Z,22.53
2022-07-29T01:36:17.563Z,22.55
2022-07-29T01:39:31.676Z,22.53
2022-07-29T01:42:44.238Z,22.53
2022-07-29T01:45:54.838Z,22.45
2022-07-29T01:49:03.452Z,22.37
2022-07-29T01:52:09.611Z,22.33
2022-07-29T01:55:16.544Z,22.22
2022-07-29T01:58:20.518Z,22.19
2022-07-29T02:01:25.478Z,22.16
2022-07-29T02:04:30.498Z,22.11
2022-07-29T02:07:34.177Z,22.09
2022-07-29T02:10:38.471Z,22.02
2022-07-29T02:13:42.917Z,21.93
2022-07-29T02:16:46.615Z,21.99
2022-07-29T02:19:50.452Z,21.87
2022-07-29T02:22:54.449Z,21.87
2022-07-29T02:25:58.365Z,21.78
2022-07-29T02:29:03.213Z,21.79
2022-07-29T02:32:07.871Z,21.75
2022-07-29T02:35:14.540Z,21.74
2022-07-29T02:38:36.904Z,21.70
2022-07-29T02:41:44.229Z,21.78
2022-07-29T02:44:46.906Z,21.78
2022-07-29T02:47:51.289Z,21.73
2022-07-29T02:51:02.356Z,21.72
2022-07-29T02:54:08.552Z,21.64
2022-07-29T02:57:21.861Z,21.65
2022-07-29T03:00:28.472Z,21.65
2022-07-29T03:03:37.890Z,21.60
2022-07-29T03:06:41.883Z,21.55
2022-07-29T03:09:45.579Z,21.53
2022-07-29T03:12:49.566Z,21.51
2022-07-29T03:15:52.997Z,21.43
2022-07-29T03:18:56.613Z,21.51
2022-07-29T03:22:00.329Z,21.51
2022-07-29T03:25:11.435Z,21.48
2022-07-29T03:28:14.461Z,21.45
2022-07-29T03:31:19.659Z,21.39
2022-07-29T03:34:23.827Z,21.27
2022-07-29T03:37:27.528Z,21.29
2022-07-29T03:40:44.123Z,21.22
2022-07-29T03:43:49.511Z,21.24
2022-07-29T03:46:53.868Z,21.25
2022-07-29T03:50:01.688Z,21.19
2022-07-29T03:53:05.223Z,21.22
2022-07-29T03:56:09.222Z,21.23
2022-07-29T03:59:12.767Z,21.25
2022-07-29T04:02:20.175Z,21.13
2022-07-29T04:05:25.801Z,21.24
2022-07-29T04:08:29.134Z,21.24
2022-07-29T04:11:32.692Z,21.27
2022-07-29T04:14:36.746Z,21.22
2022-07-29T04:17:40.047Z,21.31
2022-07-29T04:20:42.704Z,21.34
2022-07-29T04:23:53.906Z,21.32
2022-07-29T04:26:57.074Z,21.35
2022-07-29T04:30:00.781Z,21.46
2022-07-29T04:33:07.258Z,21.54
2022-07-29T04:36:28.344Z,21.54
2022-07-29T04:39:33.382Z,21.56
2022-07-29T04:42:36.294Z,21.58
2022-07-29T04:45:50.293Z,21.64
2022-07-29T04:48:54.852Z,21.62
2022-07-29T04:51:57.584Z,21.73
2022-07-29T04:55:00.703Z,21.74
2022-07-29T04:58:03.454Z,21.75
2022-07-29T05:01:06.757Z,21.77
2022-07-29T05:04:09.854Z,21.88
2022-07-29T05:07:13.286Z,21.99
2022-07-29T05:10:16.557Z,22.05
2022-07-29T05:13:19.729Z,22.13
2022-07-29T05:16:22.784Z,22.18
2022-07-29T05:19:26.006Z,22.25
2022-07-29T05:22:29.190Z,22.42
2022-07-29T05:25:43.281Z,22.52
2022-07-29T05:28:47.946Z,22.63
2022-07-29T05:31:52.497Z,22.83
2022-07-29T05:34:55.033Z,22.92
2022-07-29T05:37:58.368Z,23.10
2022-07-29T05:41:01.328Z,23.31
2022-07-29T05:44:05.366Z,23.25
2022-07-29T05:47:08.482Z,23.40
2022-07-29T05:50:11.873Z,23.47
2022-07-29T05:53:19.463Z,23.55
2022-07-29T05:56:23.107Z,23.53
2022-07-29T05:59:30.151Z,23.73
2022-07-29T06:02:33.418Z,23.86
2022-07-29T06:05:36.788Z,23.97
2022-07-29T06:08:39.701Z,24.09
2022-07-29T06:11:42.971Z,24.31
2022-07-29T06:14:46.973Z,24.41
2022-07-29T06:18:00.078Z,24.51
2022-07-29T06:21:09.657Z,24.53
2022-07-29T06:24:13.896Z,24.67
2022-07-29T06:27:17.583Z,24.73
2022-07-29T06:30:20.796Z,24.82
2022-07-29T06:33:23.657Z,24.95
2022-07-29T06:36:26.948Z,25.01
2022-07-29T06:39:31.176Z,25.02
2022-07-29T06:42:34.111Z,25.14
2022-07-29T06:45:37.379Z,25.34
2022-07-29T06:48:42.015Z,25.50
2022-07-29T06:51:44.786Z,25.42
2022-07-29T06:54:49.146Z,25.52
2022-07-29T06:57:52.423Z,25.53
2022-07-29T07:00:58.925Z,25.71
2022-07-29T07:04:01.581Z,25.88
2022-07-29T07:07:05.196Z,25.97
2022-07-29T07:10:08.435Z,25.90
2022-07-29T07:13:11.986Z,25.94
2022-07-29T07:16:14.915Z,26.04
2022-07-29T07:19:20.238Z,26.23
2022-07-29T07:22:23.061Z,26.35
2022-07-29T07:25:27.067Z,26.52
2022-07-29T07:28:30.325Z,26.77
2022-07-29T07:31:34.007Z,26.84
2022-07-29T07:34:38.890Z,26.99
2022-07-29T07:37:42.628Z,27.26
2022-07-29T07:40:47.415Z,27.33
2022-07-29T07:43:50.740Z,27.63
2022-07-29T07:46:53.558Z,27.85
2022-07-29T07:49:58.310Z,28.13
2022-07-29T07:53:03.056Z,28.46
2022-07-29T07:56:10.842Z,28.36
2022-07-29T07:59:15.295Z,28.54
2022-07-29T08:02:18.239Z,28.48
2022-07-29T08:05:21.991Z,28.68
2022-07-29T08:08:25.568Z,28.87
2022-07-29T08:11:28.592Z,29.31
2022-07-29T08:14:36.905Z,29.28
2022-07-29T08:17:40.634Z,29.58
2022-07-29T08:20:43.309Z,29.53
2022-07-29T08:23:58.595Z,29.91
2022-07-29T08:27:02.391Z,30.10
2022-07-29T08:30:06.516Z,30.34
2022-07-29T08:33:10.097Z,30.72
2022-07-29T08:36:14.277Z,30.83
2022-07-29T08:39:17.023Z,31.02
2022-07-29T08:42:20.126Z,30.86
2022-07-29T08:45:24.563Z,31.06
2022-07-29T08:48:27.476Z,31.32
2022-07-29T08:51:49.440Z,31.80
2022-07-29T08:54:54.397Z,31.89
2022-07-29T08:57:59.963Z,32.37
2022-07-29T09:01:04.566Z,32.87
2022-07-29T09:04:12.755Z,32.93
2022-07-29T09:07:17.268Z,33.14
2022-07-29T09:10:20.244Z,32.94
2022-07-29T09:13:23.885Z,33.31
2022-07-29T09:16:51.052Z,33.61
2022-07-29T09:19:49.829Z,33.80
2022-07-29T09:22:54.574Z,33.77
2022-07-29T09:26:06.851Z,34.15
2022-07-29T09:29:17.006Z,34.52
2022-07-29T09:32:19.884Z,34.34
2022-07-29T09:35:24.814Z,34.39
2022-07-29T09:38:27.791Z,34.63
2022-07-29T09:41:31.356Z,34.40
2022-07-29T09:44:45.576Z,34.86
2022-07-29T09:47:50.226Z,34.65
2022-07-29T09:50:53.582Z,34.41
2022-07-29T09:53:57.033Z,34.43
2022-07-29T09:57:00.350Z,34.67
2022-07-29T10:00:08.510Z,34.86
2022-07-29T10:03:15.753Z,34.89
2022-07-29T10:06:19.112Z,35.43
2022-07-29T10:09:22.290Z,35.72
2022-07-29T10:12:26.033Z,35.72
2022-07-29T10:15:31.069Z,35.03
2022-07-29T10:18:35.266Z,34.99
2022-07-29T10:21:38.847Z,34.69
2022-07-29T10:24:42.390Z,35.58
2022-07-29T10:27:47.605Z,35.75
2022-07-29T10:30:51.983Z,35.67
2022-07-29T10:34:43.286Z,36.43
2022-07-29T10:38:47.176Z,36.31
2022-07-29T10:42:01.256Z,36.80
2022-07-29T10:45:07.346Z,35.21
2022-07-29T10:48:10.512Z,34.87
2022-07-29T10:51:13.753Z,34.78
2022-07-29T10:54:39.732Z,34.80
2022-07-29T10:58:19.055Z,35.36
2022-07-29T11:01:37.120Z,34.36
2022-07-29T11:05:06.595Z,34.56
2022-07-29T11:08:21.095Z,35.04
2022-07-29T11:11:29.655Z,36.04
2022-07-29T11:14:54.997Z,36.57
2022-07-29T11:18:01.269Z,36.45
2022-07-29T11:21:04.203Z,35.74
2022-07-29T11:24:29.260Z,35.31
2022-07-29T11:27:40.569Z,36.31
2022-07-29T11:30:53.476Z,36.07
2022-07-29T11:33:56.976Z,36.99
2022-07-29T11:37:09.455Z,36.90
2022-07-29T11:40:14.813Z,35.90
2022-07-29T11:43:47.968Z,35.43
2022-07-29T11:46:54.747Z,35.90
2022-07-29T11:49:59.885Z,35.85
2022-07-29T11:53:14.113Z,35.49
2022-07-29T11:56:18.827Z,35.05
2022-07-29T11:59:22.735Z,34.71
2022-07-29T12:02:48.489Z,34.95
2022-07-29T12:05:52.078Z,34.80
2022-07-29T12:08:55.376Z,35.50
2022-07-29T12:12:04.902Z,35.72
2022-07-29T12:15:17.037Z,35.32
2022-07-29T12:18:24.603Z,35.52
2022-07-29T12:21:29.042Z,34.79
2022-07-29T12:24:45.078Z,34.94
2022-07-29T12:27:48.588Z,35.68
2022-07-29T12:30:53.178Z,36.48
2022-07-29T12:33:56.247Z,36.56
2022-07-29T12:37:02.229Z,36.65
2022-07-29T12:40:06.355Z,35.89
2022-07-29T12:43:17.866Z,35.32
2022-07-29T12:46:20.801Z,34.64
2022-07-29T12:49:24.191Z,34.43
2022-07-29T12:52:28.402Z,35.45
2022-07-29T12:55:43.043Z,35.98
2022-07-29T12:58:49.394Z,36.65
2022-07-29T13:01:54.464Z,36.70
2022-07-29T13:04:59.007Z,37.28
2022-07-29T13:08:22.301Z,37.18
2022-07-29T13:11:37.757Z,36.91
2022-07-29T13:14:48.726Z,37.03
2022-07-29T13:17:51.732Z,37.01
2022-07-29T13:20:55.899Z,37.08
2022-07-29T13:23:59.085Z,37.16
2022-07-29T13:27:02.288Z,37.25
2022-07-29T13:30:10.398Z,37.35
2022-07-29T13:33:13.518Z,37.27
2022-07-29T13:36:16.210Z,36.92
2022-07-29T13:39:19.670Z,36.71
2022-07-29T13:42:23.527Z,36.90
2022-07-29T13:45:29.265Z,36.63
2022-07-29T13:48:32.887Z,36.94
2022-07-29T13:51:36.356Z,36.45
2022-07-29T13:54:42.692Z,36.31
2022-07-29T13:57:46.758Z,36.19
2022-07-29T14:00:49.809Z,36.34
2022-07-29T14:03:53.090Z,36.47
2022-07-29T14:06:56.116Z,35.75
2022-07-29T14:09:59.570Z,36.05
2022-07-29T14:13:02.367Z,35.31
2022-07-29T14:16:07.987Z,35.10
2022-07-29T14:19:14.885Z,35.38
2022-07-29T14:22:19.951Z,35.36
2022-07-29T14:25:26.223Z,35.53
2022-07-29T14:28:29.497Z,35.73
2022-07-29T14:31:32.222Z,35.66
2022-07-29T14:34:36.556Z,35.66
2022-07-29T14:37:40.195Z,35.74
2022-07-29T14:40:43.863Z,35.60
2022-07-29T14:43:46.881Z,35.42
2022-07-29T14:46:50.599Z,35.32
2022-07-29T14:49:53.767Z,35.31
2022-07-29T14:52:57.101Z,35.32
2022-07-29T14:56:10.293Z,35.33
2022-07-29T14:59:18.697Z,35.18
2022-07-29T15:02:21.768Z,35.19
2022-07-29T15:05:25.350Z,35.09
2022-07-29T15:08:30.874Z,34.77
2022-07-29T15:11:38.275Z,34.25
2022-07-29T15:14:41.984Z,34.17
2022-07-29T15:17:44.897Z,33.94
2022-07-29T15:20:47.720Z,33.86
2022-07-29T15:23:50.768Z,33.76
2022-07-29T15:26:53.635Z,33.69
2022-07-29T15:29:56.754Z,33.63
2022-07-29T15:32:59.513Z,33.48
2022-07-29T15:36:02.613Z,33.31
2022-07-29T15:39:05.759Z,33.15
2022-07-29T15:42:09.397Z,33.05
2022-07-29T15:45:12.066Z,33.02
2022-07-29T15:48:15.782Z,32.97
2022-07-29T15:51:21.643Z,32.84
2022-07-29T15:54:25.162Z,32.61
2022-07-29T15:57:28.188Z,32.74
2022-07-29T16:00:31.555Z,32.80
2022-07-29T16:03:34.537Z,33.00
2022-07-29T16:06:37.476Z,32.93
2022-07-29T16:09:41.235Z,32.98
2022-07-29T16:12:43.969Z,33.08
2022-07-29T16:16:02.255Z,32.91
2022-07-29T16:19:06.431Z,32.85
2022-07-29T16:22:09.407Z,32.70
2022-07-29T16:25:12.361Z,32.64
2022-07-29T16:28:15.884Z,32.51
2022-07-29T16:31:22.498Z,32.38
2022-07-29T16:34:26.026Z,32.30
2022-07-29T16:37:37.947Z,32.34
2022-07-29T16:40:42.437Z,32.32
2022-07-29T16:43:45.145Z,32.29
2022-07-29T16:46:48.873Z,32.12
2022-07-29T16:49:52.809Z,32.15
2022-07-29T16:52:56.692Z,32.12
2022-07-29T16:55:59.980Z,32.08
2022-07-29T16:59:03.533Z,32.12
2022-07-29T17:02:06.892Z,32.03
2022-07-29T17:05:11.340Z,31.96
2022-07-29T17:08:14.147Z,31.91
2022-07-29T17:11:17.322Z,31.83
2022-07-29T17:14:24.002Z,31.80
2022-07-29T17:17:38.991Z,31.77
2022-07-29T17:20:51.631Z,31.69
2022-07-29T17:23:54.760Z,31.60
2022-07-29T17:26:57.592Z,31.59
2022-07-29T17:30:01.160Z,31.51
2022-07-29T17:33:04.142Z,31.39
2022-07-29T17:36:27.165Z,31.32
2022-07-29T17:39:30.207Z,31.26
2022-07-29T17:42:33.279Z,31.18
2022-07-29T17:45:50.266Z,31.08
2022-07-29T17:48:56.050Z,31.03
2022-07-29T17:52:00.975Z,30.97
2022-07-29T17:55:04.987Z,30.89
2022-07-29T17:58:10.338Z,30.83
2022-07-29T18:01:14.628Z,30.85
2022-07-29T18:04:21.152Z,30.81
2022-07-29T18:07:24.425Z,30.72
2022-07-29T18:10:27.593Z,30.57
2022-07-29T18:13:30.158Z,30.51
2022-07-29T18:16:34.151Z,30.37
2022-07-29T18:19:36.861Z,30.22
2022-07-29T18:22:40.298Z,29.97
2022-07-29T18:25:43.359Z,29.89
2022-07-29T18:28:46.672Z,29.73
2022-07-29T18:31:50.327Z,29.72
2022-07-29T18:34:53.671Z,29.61
2022-07-29T18:38:01.160Z,29.48
2022-07-29T18:41:05.975Z,29.38
2022-07-29T18:44:09.778Z,29.33
2022-07-29T18:47:13.170Z,29.38
2022-07-29T18:50:16.887Z,29.29
2022-07-29T18:53:20.159Z,29.32
2022-07-29T18:56:22.753Z,29.17
2022-07-29T18:59:28.576Z,29.16
2022-07-29T19:02:31.604Z,29.17
2022-07-29T19:05:35.119Z,29.05
2022-07-29T19:08:37.810Z,28.97
2022-07-29T19:11:41.550Z,28.86
2022-07-29T19:14:44.552Z,28.86
2022-07-29T19:17:52.057Z,28.94
2022-07-29T19:20:54.924Z,28.89
2022-07-29T19:24:01.696Z,28.78
2022-07-29T19:27:10.232Z,28.80
2022-07-29T19:30:13.893Z,28.77
2022-07-29T19:33:18.928Z,28.77
2022-07-29T19:36:21.911Z,28.76
2022-07-29T19:39:34.933Z,28.65
2022-07-29T19:42:39.232Z,28.62
2022-07-29T19:45:42.317Z,28.60
2022-07-29T19:48:45.969Z,28.57
2022-07-29T19:51:49.035Z,28.47
2022-07-29T19:54:52.062Z,28.40
2022-07-29T19:57:55.574Z,28.29
2022-07-29T20:00:58.758Z,28.16
2022-07-29T20:04:01.815Z,27.95
2022-07-29T20:07:05.754Z,27.90
2022-07-29T20:10:10.449Z,27.76
2022-07-29T20:13:13.308Z,27.67
2022-07-29T20:16:16.901Z,27.48
2022-07-29T20:19:20.089Z,27.45
2022-07-29T20:22:23.439Z,27.23
2022-07-29T20:25:26.099Z,27.15
2022-07-29T20:28:29.581Z,27.12
2022-07-29T20:31:32.903Z,26.89
2022-07-29T20:34:36.438Z,26.80
2022-07-29T20:37:52.210Z,26.75
2022-07-29T20:40:59.683Z,26.68
2022-07-29T20:44:03.301Z,26.61
2022-07-29T20:47:06.582Z,26.59
2022-07-29T20:50:10.180Z,26.50
2022-07-29T20:53:13.650Z,26.44
2022-07-29T20:56:16.482Z,26.45
2022-07-29T20:59:19.602Z,26.30
2022-07-29T21:02:22.181Z,26.23
2022-07-29T21:05:28.213Z,26.20
2022-07-29T21:08:31.310Z,26.13
2022-07-29T21:11:43.265Z,26.03
2022-07-29T21:14:48.157Z,25.88
2022-07-29T21:17:59.726Z,25.87
2022-07-29T21:21:04.538Z,25.81
2022-07-29T21:24:08.174Z,25.68
2022-07-29T21:27:33.633Z,25.61
2022-07-29T21:30:37.275Z,25.41
2022-07-29T21:33:42.043Z,25.40
2022-07-29T21:36:58.501Z,25.31
2022-07-29T21:40:02.098Z,25.21
2022-07-29T21:43:08.844Z,25.02
2022-07-29T21:46:12.644Z,25.05
2022-07-29T21:49:16.545Z,24.95
2022-07-29T21:52:19.579Z,24.94
2022-07-29T21:55:24.414Z,24.94
2022-07-29T21:58:29.652Z,24.73
2022-07-29T22:01:38.999Z,24.70
2022-07-29T22:04:43.011Z,24.68
2022-07-29T22:07:55.585Z,24.76
2022-07-29T22:11:00.756Z,24.73
2022-07-29T22:14:06.198Z,24.63
2022-07-29T22:17:09.164Z,24.63
2022-07-29T22:20:12.418Z,24.58
2022-07-29T22:23:15.383Z,24.53
2022-07-29T22:26:19.222Z,24.38
2022-07-29T22:29:22.354Z,24.32
2022-07-29T22:32:25.458Z,24.25
2022-07-29T22:35:28.517Z,24.19
2022-07-29T22:38:31.813Z,24.03
2022-07-29T22:41:35.110Z,24.10
2022-07-29T22:44:38.124Z,24.12
2022-07-29T22:47:47.892Z,24.02
2022-07-29T22:50:51.764Z,23.96
2022-07-29T22:53:54.821Z,23.86
2022-07-29T22:56:57.907Z,23.74
2022-07-29T23:00:02.603Z,23.57
2022-07-29T23:03:06.267Z,23.54
2022-07-29T23:06:09.489Z,23.38
2022-07-29T23:09:12.169Z,23.19
2022-07-29T23:12:15.601Z,23.27
2022-07-29T23:15:18.528Z,23.25
2022-07-29T23:18:22.755Z,23.20
2022-07-29T23:21:26.285Z,23.21
2022-07-29T23:24:29.683Z,23.22
2022-07-29T23:27:33.064Z,23.03
2022-07-29T23:30:36.687Z,23.31
2022-07-29T23:33:41.134Z,23.20
2022-07-29T23:36:44.374Z,23.21
2022-07-29T23:39:47.135Z,23.22
2022-07-29T23:42:50.508Z,23.18
2022-07-29T23:45:53.691Z,23.22
2022-07-29T23:48:56.797Z,23.06
2022-07-29T23:52:00.024Z,23.03
2022-07-29T23:55:37.253Z,22.98
2022-07-29T23:58:26.115Z,22.89
